sensor_id;sensor_type;location;lat;lon;timestamp;temperature;humidity
27870;DHT22;15225;50.730;4.244;2024-03-23T18:58:03;6.70;43.10
27870;DHT22;15225;50.730;4.244;2024-03-23T19:00:29;6.80;50.60
27870;DHT22;15225;50.730;4.244;2024-03-23T19:02:55;7.10;54.00
27870;DHT22;15225;50.730;4.244;2024-03-23T19:05:22;7.40;49.40
27870;DHT22;15225;50.730;4.244;2024-03-23T19:07:47;7.60;46.40
27870;DHT22;15225;50.730;4.244;2024-03-23T19:10:13;8.00;34.30
27870;DHT22;15225;50.730;4.244;2024-03-23T19:12:39;7.90;25.10
27870;DHT22;15225;50.730;4.244;2024-03-23T19:15:08;8.20;19.60
27870;DHT22;15225;50.730;4.244;2024-03-23T19:17:37;8.20;7.00
27870;DHT22;15225;50.730;4.244;2024-03-23T19:20:03;8.20;5.10
27870;DHT22;15225;50.730;4.244;2024-03-23T19:22:29;8.40;2.40
27870;DHT22;15225;50.730;4.244;2024-03-23T19:24:55;8.40;1.00
27870;DHT22;15225;50.730;4.244;2024-03-23T19:27:21;8.60;1.00
27870;DHT22;15225;50.730;4.244;2024-03-23T19:29:46;8.60;1.00
27870;DHT22;15225;50.730;4.244;2024-03-23T19:32:12;8.60;1.00
27870;DHT22;15225;50.730;4.244;2024-03-23T19:34:38;8.80;1.00
27870;DHT22;15225;50.730;4.244;2024-03-23T19:37:04;8.80;1.00
27870;DHT22;15225;50.730;4.244;2024-03-23T19:39:30;8.80;1.00
27870;DHT22;15225;50.730;4.244;2024-03-23T19:41:57;8.90;1.00
27870;DHT22;15225;50.730;4.244;2024-03-23T19:44:23;8.90;1.00
27870;DHT22;15225;50.730;4.244;2024-03-23T19:46:49;8.90;1.00
27870;DHT22;15225;50.730;4.244;2024-03-23T19:49:15;8.70;1.00
27870;DHT22;15225;50.730;4.244;2024-03-23T19:51:41;8.80;1.00
27870;DHT22;15225;50.730;4.244;2024-03-23T19:54:07;8.70;1.00
27870;DHT22;15225;50.730;4.244;2024-03-23T19:56:33;8.80;1.00
27870;DHT22;15225;50.730;4.244;2024-03-23T19:58:59;8.80;1.00
27870;DHT22;15225;50.730;4.244;2024-03-23T20:01:25;8.80;1.00
27870;DHT22;15225;50.730;4.244;2024-03-23T20:03:51;8.80;1.00
27870;DHT22;15225;50.730;4.244;2024-03-23T20:06:17;8.80;1.00
27870;DHT22;15225;50.730;4.244;2024-03-23T20:08:46;8.80;1.00
27870;DHT22;15225;50.730;4.244;2024-03-23T20:11:15;8.60;1.00
27870;DHT22;15225;50.730;4.244;2024-03-23T20:13:41;8.50;1.00
27870;DHT22;15225;50.730;4.244;2024-03-23T20:16:07;8.50;1.00
27870;DHT22;15225;50.730;4.244;2024-03-23T20:18:34;8.60;1.00
27870;DHT22;15225;50.730;4.244;2024-03-23T20:21:00;8.60;1.00
27870;DHT22;15225;50.730;4.244;2024-03-23T20:23:26;8.60;1.00
27870;DHT22;15225;50.730;4.244;2024-03-23T20:25:57;8.50;1.00
27870;DHT22;15225;50.730;4.244;2024-03-23T20:28:24;8.20;1.00
27870;DHT22;15225;50.730;4.244;2024-03-23T20:30:56;8.30;1.00
27870;DHT22;15225;50.730;4.244;2024-03-23T20:33:23;8.30;1.00
27870;DHT22;15225;50.730;4.244;2024-03-23T20:35:49;8.30;1.00
27870;DHT22;15225;50.730;4.244;2024-03-23T20:38:19;8.30;1.00
27870;DHT22;15225;50.730;4.244;2024-03-23T20:40:55;8.30;1.00
27870;DHT22;15225;50.730;4.244;2024-03-23T20:43:22;8.20;1.00
27870;DHT22;15225;50.730;4.244;2024-03-23T20:45:58;8.40;1.00
27870;DHT22;15225;50.730;4.244;2024-03-23T20:48:25;8.30;1.00
27870;DHT22;15225;50.730;4.244;2024-03-23T20:51:02;8.30;1.00
27870;DHT22;15225;50.730;4.244;2024-03-23T20:53:28;8.30;1.00
27870;DHT22;15225;50.730;4.244;2024-03-23T20:55:55;8.20;1.00
27870;DHT22;15225;50.730;4.244;2024-03-23T20:58:22;8.20;1.00
27870;DHT22;15225;50.730;4.244;2024-03-23T21:00:48;8.10;1.00
27870;DHT22;15225;50.730;4.244;2024-03-23T21:03:14;8.00;1.00
27870;DHT22;15225;50.730;4.244;2024-03-23T21:05:41;8.00;1.00
27870;DHT22;15225;50.730;4.244;2024-03-23T21:08:07;8.00;1.00
27870;DHT22;15225;50.730;4.244;2024-03-23T21:10:33;8.10;1.00
27870;DHT22;15225;50.730;4.244;2024-03-23T21:12:58;8.10;1.00
27870;DHT22;15225;50.730;4.244;2024-03-23T21:15:24;7.90;1.00
27870;DHT22;15225;50.730;4.244;2024-03-23T21:17:50;7.90;1.00
27870;DHT22;15225;50.730;4.244;2024-03-23T21:20:16;8.00;1.00
27870;DHT22;15225;50.730;4.244;2024-03-23T21:22:41;8.20;1.00
27870;DHT22;15225;50.730;4.244;2024-03-23T21:25:09;8.30;1.00
27870;DHT22;15225;50.730;4.244;2024-03-23T21:27:35;8.20;1.00
27870;DHT22;15225;50.730;4.244;2024-03-23T21:30:00;8.10;1.00
27870;DHT22;15225;50.730;4.244;2024-03-23T21:32:27;8.10;1.00
27870;DHT22;15225;50.730;4.244;2024-03-23T21:34:53;8.10;1.00
27870;DHT22;15225;50.730;4.244;2024-03-23T21:37:19;8.00;1.00
27870;DHT22;15225;50.730;4.244;2024-03-23T21:39:46;8.10;1.00
27870;DHT22;15225;50.730;4.244;2024-03-23T21:42:11;8.20;1.00
27870;DHT22;15225;50.730;4.244;2024-03-23T21:44:37;8.10;1.00
27870;DHT22;15225;50.730;4.244;2024-03-23T21:47:03;8.10;1.00
27870;DHT22;15225;50.730;4.244;2024-03-23T21:49:29;8.00;1.00
27870;DHT22;15225;50.730;4.244;2024-03-23T21:51:54;8.00;1.00
27870;DHT22;15225;50.730;4.244;2024-03-23T21:54:23;8.10;1.00
27870;DHT22;15225;50.730;4.244;2024-03-23T21:56:48;8.10;1.00
27870;DHT22;15225;50.730;4.244;2024-03-23T21:59:14;8.20;1.00
27870;DHT22;15225;50.730;4.244;2024-03-23T22:01:39;8.10;1.00
27870;DHT22;15225;50.730;4.244;2024-03-23T22:04:05;8.20;1.00
27870;DHT22;15225;50.730;4.244;2024-03-23T22:06:33;8.20;1.00
27870;DHT22;15225;50.730;4.244;2024-03-23T22:08:58;8.20;1.00
27870;DHT22;15225;50.730;4.244;2024-03-23T22:11:24;7.90;1.00
27870;DHT22;15225;50.730;4.244;2024-03-23T22:13:50;8.10;1.00
27870;DHT22;15225;50.730;4.244;2024-03-23T22:16:15;8.10;1.00
27870;DHT22;15225;50.730;4.244;2024-03-23T22:18:41;8.20;1.00
27870;DHT22;15225;50.730;4.244;2024-03-23T22:21:07;8.30;1.00
27870;DHT22;15225;50.730;4.244;2024-03-23T22:23:33;8.20;1.00
27870;DHT22;15225;50.730;4.244;2024-03-23T22:25:59;8.10;1.00
27870;DHT22;15225;50.730;4.244;2024-03-23T22:28:26;8.00;1.00
27870;DHT22;15225;50.730;4.244;2024-03-23T22:31:05;8.10;1.00
27870;DHT22;15225;50.730;4.244;2024-03-23T22:33:31;8.10;1.00
27870;DHT22;15225;50.730;4.244;2024-03-23T22:35:58;7.90;1.00
27870;DHT22;15225;50.730;4.244;2024-03-23T22:38:28;7.80;1.00
27870;DHT22;15225;50.730;4.244;2024-03-23T22:43:24;7.90;1.00
27870;DHT22;15225;50.730;4.244;2024-03-23T22:46:00;8.00;1.00
27870;DHT22;15225;50.730;4.244;2024-03-23T22:48:27;7.90;1.00
